Date,TemperatureHighF,TemperatureAvgF,TemperatureLowF,DewpointHighF,DewpointAvgF,DewpointLowF,HumidityHigh,HumidityAvg,HumidityLow,PressureMaxIn,PressureMinIn,WindSpeedMaxMPH,WindSpeedAvgMPH,GustSpeedMaxMPH,PrecipitationSumIn
2013-1-1,40,31,25,35,29,24,100,94,77,30.51,30.36,1,0,4,0.00
2013-1-2,44,32,25,35,28,25,100,88,57,30.36,30.20,2,0,6,0.01
2013-1-3,43,33,23,34,27,23,100,83,51,30.21,30.11,2,0,6,0.23
2013-1-4,48,42,35,45,40,34,100,94,85,30.32,30.17,3,0,12,0.07
2013-1-5,44,40,38,39,37,36,97,89,77,30.21,30.11,2,0,6,0.09
2013-1-6,44,41,38,41,39,37,97,93,83,30.19,29.99,5,1,12,0.16
2013-1-7,49,45,39,47,43,38,100,93,85,30.16,29.81,6,2,18,0.20
2013-1-8,52,46,40,49,44,39,100,93,84,30.16,29.74,7,2,22,0.56
2013-1-9,49,39,33,48,38,32,100,97,90,29.95,29.67,5,1,16,1.27
2013-1-10,37,33,28,37,33,28,100,99,95,30.12,29.94,2,0,6,0.16
2013-1-11,31,26,23,31,26,22,100,100,97,30.34,30.12,1,0,3,0.00
2013-1-12,34,26,22,30,24,21,100,94,74,30.46,30.33,2,0,6,0.00
2013-1-13,34,26,19,30,24,18,100,93,73,30.51,30.45,1,0,3,0.00
2013-1-14,35,32,30,32,30,28,96,92,86,30.58,30.49,1,0,4,0.01
2013-1-15,42,33,27,35,31,27,100,92,74,30.71,30.58,1,0,4,0.01
2013-1-16,41,30,24,36,29,23,100,95,79,30.70,30.53,1,0,3,0.00
2013-1-17,35,30,26,35,30,26,100,99,96,30.54,30.31,1,0,3,0.01
2013-1-18,35,31,28,35,31,28,100,100,100,30.36,30.27,1,0,4,0.00
2013-1-19,32,30,27,32,30,27,100,100,100,30.40,30.35,1,0,3,0.00
2013-1-20,34,30,28,34,30,28,100,100,97,30.41,30.28,2,0,4,0.00
2013-1-21,33,30,27,33,30,27,100,100,100,30.29,30.15,1,0,4,0.00
2013-1-22,36,31,27,36,31,27,100,100,100,30.16,29.91,1,0,2,0.01
2013-1-23,41,38,34,41,36,29,100,93,66,30.14,29.85,6,0,9,0.30
2013-1-24,45,41,37,41,39,36,100,93,76,30.22,30.06,2,0,7,0.19
2013-1-25,49,43,37,46,42,37,100,97,84,30.06,29.93,3,0,7,0.16
2013-1-26,43,40,37,41,39,37,100,96,91,30.04,29.89,3,0,9,0.37
2013-1-27,41,40,38,39,38,37,97,94,90,30.06,29.99,3,1,12,0.12
2013-1-28,41,40,37,41,39,36,100,98,94,30.10,30.01,3,0,8,0.48
2013-1-29,46,43,40,46,43,40,100,99,97,30.34,30.10,3,1,9,0.72
2013-1-30,48,46,43,48,46,43,100,100,97,30.39,30.33,3,1,9,0.18
2013-1-31,49,46,45,46,45,44,100,97,88,30.40,30.31,3,1,12,0.16
2013-2-1,50,44,38,46,43,38,100,96,82,30.41,30.33,2,0,4,0.01
2013-2-2,41,39,36,41,38,36,100,99,94,30.39,30.26,2,0,5,0.00
2013-2-3,48,42,37,44,41,37,100,96,86,30.32,30.21,2,0,6,0.09
2013-2-4,50,45,43,44,42,41,97,89,76,30.21,29.90,2,0,10,0.00
2013-2-5,50,45,42,44,42,40,100,89,75,29.94,29.85,6,2,23,0.18
2013-2-6,50,44,42,42,40,39,96,86,67,30.05,29.79,6,1,14,0.06
2013-2-7,48,42,31,41,36,30,97,82,59,30.19,29.80,7,1,16,0.09
2013-2-8,44,36,29,38,34,29,100,92,75,30.32,30.19,2,0,5,0.00
2013-2-9,44,40,38,40,38,36,100,94,84,30.34,30.27,2,0,4,0.02
2013-2-10,45,38,32,40,36,32,100,93,73,30.39,30.32,1,0,5,0.01
2013-2-11,46,41,37,41,39,36,100,91,75,30.37,30.33,2,0,6,0.03
2013-2-12,49,45,41,46,43,40,100,93,86,30.41,30.29,5,1,14,0.03
2013-2-13,48,44,42,45,42,41,100,95,87,30.50,30.31,5,0,9,0.14
2013-2-14,47,44,41,45,42,40,100,94,85,30.56,30.50,2,0,7,0.08
2013-2-15,57,44,37,47,41,36,100,92,67,30.55,30.18,2,0,6,0.00
2013-2-16,52,43,35,44,40,35,100,93,66,30.21,30.11,5,1,14,0.47
2013-2-17,45,40,36,40,38,36,100,93,73,30.25,30.12,2,0,7,0.01
2013-2-18,45,39,35,39,36,34,97,89,71,30.12,29.77,3,0,12,0.00
2013-2-19,50,40,33,38,35,32,96,82,57,30.02,29.74,5,0,10,0.00
2013-2-20,44,38,32,40,36,31,100,92,78,30.06,30.00,5,0,10,0.08
2013-2-21,43,41,37,40,38,36,100,91,83,30.08,30.01,5,1,14,0.02
2013-2-22,46,42,38,42,38,34,95,88,78,30.06,29.69,8,3,20,0.15
2013-2-23,48,41,37,38,36,34,93,82,63,30.38,29.91,3,1,12,0.00
2013-2-24,47,43,39,38,36,34,86,77,66,30.39,29.96,6,2,14,0.00
2013-2-25,49,42,35,39,36,32,94,80,54,30.31,29.90,8,2,20,0.08
2013-2-26,47,41,31,38,33,30,100,77,57,30.36,30.21,6,1,12,0.01
2013-2-27,48,43,38,44,40,37,100,92,72,30.31,30.21,2,0,8,0.42
2013-2-28,51,45,41,50,45,41,100,99,94,30.33,30.19,5,1,11,0.21
2013-3-1,57,53,50,51,50,49,100,88,79,30.37,30.28,6,2,20,0.08
2013-3-2,57,48,37,49,44,36,97,86,71,30.28,30.07,7,1,18,0.34
2013-3-3,49,39,31,39,34,30,100,86,54,30.32,30.20,3,0,8,0.00
2013-3-4,54,39,27,36,29,25,100,71,36,30.31,29.94,3,0,7,0.00
2013-3-5,51,45,41,39,33,24,90,63,43,29.94,29.73,3,0,9,0.00
2013-3-6,43,40,38,42,39,36,97,94,87,29.91,29.59,3,0,9,0.49
2013-3-7,51,42,34,44,40,33,100,93,69,30.10,29.91,2,0,8,0.24
2013-3-8,53,39,30,42,36,30,100,89,64,30.26,30.09,2,0,9,0.00
2013-3-9,54,40,29,42,35,29,100,86,54,30.50,30.26,3,0,8,0.00
2013-3-10,47,41,34,42,38,33,97,91,73,30.51,30.44,2,0,5,0.01
2013-3-11,51,47,42,45,43,41,97,86,70,30.46,30.17,2,0,7,0.03
2013-3-12,54,52,47,50,48,45,94,87,75,30.17,30.07,6,2,18,0.00
2013-3-13,52,50,49,50,49,47,100,93,88,30.21,30.10,6,2,17,0.25
2013-3-14,52,49,47,50,47,44,100,92,78,30.16,30.04,5,1,9,0.02
2013-3-15,59,52,47,50,48,45,97,87,69,30.22,30.14,6,1,12,0.00
2013-3-16,50,46,37,45,41,34,91,85,72,30.14,29.89,7,2,18,0.00
2013-3-17,49,40,36,38,35,33,97,82,57,30.21,29.98,6,1,16,0.16
2013-3-18,51,42,34,42,36,32,96,80,55,30.26,30.12,5,1,17,0.09
2013-3-19,57,41,32,41,35,28,97,81,34,30.24,29.61,6,1,13,0.28
2013-3-20,50,45,35,48,41,33,100,88,72,30.02,29.40,9,3,24,0.73
2013-3-21,46,38,34,39,35,33,97,87,65,30.23,30.02,5,1,13,0.17
2013-3-22,46,37,31,37,32,28,100,84,55,30.40,30.22,3,0,9,0.05
2013-3-23,50,38,30,34,28,22,96,72,33,30.42,30.32,3,0,7,0.00
2013-3-24,54,40,28,35,30,26,96,70,36,30.31,30.14,2,0,6,0.00
2013-3-25,62,47,31,36,30,26,86,55,31,30.14,29.94,2,0,6,0.00
2013-3-26,60,49,42,42,38,34,82,67,40,30.03,29.96,3,0,8,0.00
2013-3-27,58,48,42,48,42,38,97,81,56,30.00,29.94,2,0,5,0.00
2013-3-28,62,50,41,50,45,40,100,84,57,30.16,30.00,3,0,8,0.04
2013-3-29,64,52,40,48,44,39,97,77,51,30.25,30.16,5,0,9,0.00
2013-3-30,68,52,37,46,42,36,100,74,41,30.26,30.08,2,0,9,0.00
2013-3-31,73,54,39,48,43,38,100,72,39,30.08,29.91,2,0,6,0.00
2013-4-1,61,52,46,50,47,43,94,82,62,30.16,29.98,6,1,12,0.00
2013-4-2,55,51,48,48,46,45,92,83,74,30.20,30.15,5,1,12,0.00
2013-4-3,61,52,43,48,45,42,97,78,50,30.19,29.95,5,0,8,0.00
2013-4-4,55,52,48,54,49,45,97,92,84,29.95,29.65,6,1,14,0.42
2013-4-5,57,52,47,51,48,46,97,90,76,29.88,29.73,6,2,17,0.25
2013-4-6,54,47,43,47,44,42,97,90,73,29.94,29.71,7,2,16,0.43
2013-4-7,45,42,38,43,41,37,97,96,93,29.90,29.51,2,0,9,0.92
2013-4-8,54,46,41,48,43,40,100,90,72,30.28,29.90,3,0,7,0.05
2013-4-9,54,48,40,45,42,39,100,81,63,30.36,30.19,3,1,9,0.00
2013-4-10,58,51,46,51,46,42,96,85,70,30.27,29.95,6,1,16,0.17
2013-4-11,53,47,41,44,41,37,95,80,61,30.32,30.20,3,0,8,0.16
2013-4-12,46,42,38,43,39,35,96,89,73,30.20,29.68,7,1,18,0.19
2013-4-13,48,41,34,43,38,34,97,91,78,30.01,29.77,6,1,14,0.55
2013-4-14,54,44,37,43,38,34,100,82,49,30.02,29.92,3,0,8,0.13
2013-4-15,56,44,36,42,39,35,97,83,53,30.19,29.96,5,0,12,0.01
2013-4-16,54,44,35,43,38,34,100,82,49,30.41,30.19,3,0,7,0.05
2013-4-17,59,47,34,42,37,31,97,72,35,30.47,30.40,6,1,12,0.00
2013-4-18,50,46,43,47,42,38,95,86,75,30.46,30.22,6,1,13,0.15
2013-4-19,53,50,47,52,49,46,97,95,92,30.22,30.07,5,1,20,0.48
2013-4-20,54,48,45,50,46,44,97,91,76,30.29,30.21,3,1,10,0.39
2013-4-21,52,46,38,46,42,37,97,89,68,30.38,30.24,3,0,8,0.13
2013-4-22,61,46,32,43,35,23,100,69,30,30.53,30.38,5,0,8,0.00
2013-4-23,64,48,33,40,35,27,97,65,25,30.44,30.25,3,0,8,0.00
2013-4-24,70,53,36,43,37,30,97,61,24,30.34,30.07,3,0,9,0.00
2013-4-25,71,56,40,45,40,36,89,58,29,30.14,30.04,3,0,8,0.00
2013-4-26,64,54,43,50,46,41,100,76,56,30.26,30.14,5,1,12,0.00
2013-4-27,55,53,49,49,45,39,92,75,56,30.23,30.15,5,1,13,0.03
2013-4-28,57,50,45,51,45,40,97,82,59,30.22,29.95,5,1,16,0.18
2013-4-29,55,47,41,46,40,32,96,78,42,30.17,29.92,3,1,12,0.15
2013-4-30,55,44,35,41,35,28,97,74,37,30.45,30.17,6,0,12,0.15
2013-5-1,64,49,32,39,34,26,97,63,24,30.59,30.45,2,0,8,0.00
2013-5-2,71,54,38,46,40,36,93,63,35,30.56,30.37,3,0,9,0.00
2013-5-3,70,56,40,49,44,38,94,67,43,30.40,30.24,3,1,9,0.00
2013-5-4,77,61,44,52,46,37,95,62,25,30.25,30.00,5,0,9,0.00
2013-5-5,83,65,46,51,46,41,92,56,24,30.00,29.77,5,0,12,0.00
2013-5-6,86,68,48,51,47,42,89,51,23,29.86,29.74,5,0,9,0.00
2013-5-7,72,59,51,55,51,48,91,75,53,30.00,29.82,5,1,12,0.00
2013-5-8,67,56,51,53,50,48,95,82,61,30.15,30.00,6,1,12,0.00
2013-5-9,73,57,47,56,51,46,100,82,46,30.23,30.12,6,0,9,0.00
2013-5-10,78,62,45,56,52,45,100,71,39,30.21,30.10,3,0,8,0.00
2013-5-11,80,66,55,56,50,43,87,59,39,30.17,29.99,3,1,9,0.00
2013-5-12,70,62,57,58,56,52,95,81,59,30.10,30.01,5,1,12,0.11
2013-5-13,65,56,49,57,50,42,94,82,61,30.19,29.93,7,2,21,0.11
2013-5-14,64,54,45,45,42,37,88,66,39,30.24,30.12,5,1,10,0.00
2013-5-15,65,52,43,51,45,40,96,79,44,30.13,30.03,5,1,12,0.06
2013-5-16,71,59,51,54,51,49,97,76,50,30.03,29.87,3,1,10,0.01
2013-5-17,63,56,52,52,50,47,92,79,58,30.06,29.95,5,1,12,0.02
2013-5-18,63,56,51,49,47,45,87,73,56,30.28,30.07,5,1,12,0.00
2013-5-19,66,56,48,52,49,46,91,78,56,30.41,30.28,2,0,7,0.00
2013-5-20,68,55,42,52,47,41,97,78,47,30.36,29.92,6,1,9,0.00
2013-5-21,56,50,45,49,45,43,96,86,65,29.92,29.79,5,1,10,0.33
2013-5-22,53,47,43,48,44,41,96,91,77,29.96,29.86,6,1,10,0.08
2013-5-23,56,48,43,47,44,42,100,86,61,30.03,29.95,5,1,12,0.05
2013-5-24,62,52,44,49,46,43,100,79,52,30.06,29.99,5,1,9,0.00
2013-5-25,63,55,49,49,46,43,90,74,48,30.06,29.98,6,1,12,0.00
2013-5-26,64,56,49,54,50,47,95,83,65,30.00,29.95,6,1,12,0.02
2013-5-27,59,55,49,56,52,48,96,91,82,29.98,29.72,2,0,7,0.17
2013-5-28,62,56,51,52,50,47,94,81,63,29.90,29.78,6,1,14,0.01
2013-5-29,60,52,49,53,49,47,96,90,68,29.98,29.69,5,0,13,0.15
2013-5-30,62,54,48,48,46,44,88,76,56,30.25,29.98,6,2,14,0.00
2013-5-31,68,56,47,49,46,42,93,71,42,30.35,30.25,3,1,9,0.00
2013-6-1,71,60,48,52,47,39,89,67,32,30.25,30.05,5,1,8,0.00
2013-6-2,70,60,52,53,50,47,95,73,48,30.09,30.05,5,1,12,0.05
2013-6-3,74,59,48,54,51,47,96,76,45,30.13,30.06,5,1,10,0.00
2013-6-4,81,65,48,57,52,46,97,67,36,30.14,30.02,3,0,9,0.00
2013-6-5,78,65,50,59,53,46,86,66,43,30.09,30.02,3,0,10,0.00
2013-6-6,79,64,50,57,50,43,96,64,31,30.06,30.00,5,1,10,0.00
2013-6-7,68,60,54,56,48,43,79,66,46,30.16,30.02,5,1,13,0.00
2013-6-8,68,59,52,52,49,46,83,70,55,30.21,30.11,5,1,10,0.00
2013-6-9,66,57,49,50,47,45,90,71,51,30.13,30.03,3,1,10,0.00
2013-6-10,69,58,45,50,46,42,92,68,42,30.05,29.89,6,1,10,0.00
2013-6-11,64,57,51,53,47,44,88,70,51,30.11,29.95,6,1,17,0.05
2013-6-12,67,58,52,51,47,43,93,68,43,30.15,30.11,5,1,12,0.06
2013-6-13,69,58,51,52,49,44,95,74,42,30.22,30.15,3,0,9,0.00
2013-6-14,68,58,51,50,48,47,87,70,51,30.24,30.06,5,1,12,0.00
2013-6-15,77,62,46,56,52,44,97,70,47,30.06,29.92,3,0,7,0.00
2013-6-16,74,63,54,62,54,50,92,73,53,30.09,29.99,5,1,10,0.01
2013-6-17,77,64,54,54,52,48,93,68,37,30.10,29.89,7,1,16,0.04
2013-6-18,72,62,52,54,50,43,97,68,37,29.99,29.88,6,1,13,0.00
2013-6-19,64,59,55,56,52,49,89,78,62,30.01,29.92,3,1,9,0.03
2013-6-20,59,55,52,55,52,49,97,89,74,30.12,29.96,3,1,10,1.12
2013-6-21,67,58,51,55,53,50,100,83,60,30.18,30.12,2,0,7,0.00
2013-6-22,79,64,49,56,52,48,100,69,39,30.13,29.85,3,1,12,0.00
2013-6-23,70,64,58,63,59,55,95,84,71,29.85,29.60,2,0,6,0.09
2013-6-24,68,61,56,60,56,53,100,83,61,29.70,29.58,6,1,12,0.12
2013-6-25,74,61,55,59,56,51,97,84,47,29.86,29.68,9,1,21,0.68
2013-6-26,72,62,54,61,57,54,100,85,60,30.08,29.85,5,1,12,0.06
2013-6-27,70,64,58,64,60,56,97,88,74,30.20,30.05,2,0,8,0.08
2013-6-28,87,72,59,67,62,58,100,74,42,30.19,30.03,6,1,13,0.00
2013-6-29,86,73,64,65,61,57,90,69,46,30.10,29.98,3,0,8,0.00
2013-6-30,94,77,58,68,63,56,95,64,39,30.01,29.83,3,0,8,0.00
2013-7-1,90,76,62,68,62,58,87,64,43,30.01,29.90,5,0,9,0.00
2013-7-2,82,70,59,63,56,51,89,64,37,30.10,30.01,5,1,9,0.00
2013-7-3,79,67,58,58,51,45,73,58,34,30.15,30.03,2,1,9,0.00
2013-7-4,73,62,55,55,53,49,84,73,51,30.13,30.03,5,1,12,0.00
2013-7-5,75,64,54,57,54,51,92,73,51,30.04,29.95,5,1,10,0.00
2013-7-6,80,65,53,59,55,52,96,73,46,29.98,29.85,3,0,9,0.00
2013-7-7,77,65,54,60,57,52,93,76,53,29.95,29.88,5,1,12,0.00
2013-7-8,81,64,56,59,56,53,88,76,44,30.09,29.94,5,1,10,0.00
2013-7-9,85,70,56,60,56,52,96,66,39,30.11,29.99,6,1,12,0.00
2013-7-10,72,62,55,58,54,50,89,75,60,30.06,29.95,6,1,12,0.00
2013-7-11,70,59,54,53,49,47,86,70,50,30.09,30.00,5,1,8,0.00
2013-7-12,67,58,49,54,50,46,89,75,59,30.11,30.02,3,0,9,0.00
2013-7-13,77,62,46,54,49,44,95,65,36,30.21,30.11,3,0,8,0.00
2013-7-14,81,65,48,55,49,45,96,60,30,30.14,29.98,5,1,12,0.00
2013-7-15,81,67,50,58,51,47,92,60,34,30.05,29.89,3,1,8,0.00
2013-7-16,89,72,54,58,53,49,86,55,27,29.91,29.79,3,0,7,0.00
2013-7-17,71,65,58,60,56,54,90,74,58,30.19,29.87,5,1,14,0.01
2013-7-18,79,66,56,60,56,54,93,73,51,30.23,30.11,3,0,8,0.00
2013-7-19,81,65,52,62,57,51,97,77,49,30.19,30.03,3,0,10,0.00
2013-7-20,76,62,52,61,56,50,96,82,57,30.09,29.95,3,0,8,0.00
2013-7-21,77,64,55,60,57,54,96,81,55,29.98,29.90,3,1,9,0.00
2013-7-22,79,65,57,60,57,55,94,77,49,30.07,29.93,3,1,8,0.00
2013-7-23,86,69,54,62,56,53,97,68,36,30.06,29.96,5,0,9,0.00
2013-7-24,85,70,54,59,54,48,94,62,33,30.05,29.98,6,1,10,0.00
2013-7-25,86,69,51,56,51,43,90,58,23,30.09,30.03,5,0,9,0.00
2013-7-26,84,68,53,56,51,39,91,59,22,30.15,30.07,3,1,10,0.00
2013-7-27,78,64,51,54,51,47,91,66,40,30.16,29.99,5,1,12,0.00
2013-7-28,69,60,55,56,53,50,90,77,61,30.03,29.95,6,2,13,0.00
2013-7-29,75,64,56,57,54,52,86,73,51,30.01,29.95,3,1,8,0.00
2013-7-30,77,65,56,59,56,53,93,74,51,30.13,30.00,5,1,10,0.00
2013-7-31,69,62,56,62,58,54,96,87,71,30.13,29.99,3,0,7,0.00
2013-8-1,66,61,56,59,56,54,92,82,71,30.07,30.03,6,1,12,0.00
2013-8-2,60,59,57,59,56,54,97,91,82,30.13,30.06,2,0,8,0.08
2013-8-3,73,64,58,62,59,56,100,85,65,30.13,30.05,2,0,5,0.00
2013-8-4,81,68,53,63,58,52,100,74,51,30.06,29.93,3,0,7,0.00
2013-8-5,85,70,56,61,57,52,96,67,33,30.01,29.91,3,0,9,0.00
2013-8-6,86,69,52,60,55,50,93,64,29,30.00,29.90,5,1,9,0.00
2013-8-7,85,69,54,60,55,52,94,65,35,30.01,29.93,3,1,8,0.00
2013-8-8,81,67,59,61,57,53,91,73,48,30.03,29.93,5,1,9,0.00
2013-8-9,81,69,55,60,56,52,91,67,46,29.96,29.83,5,1,9,0.00
2013-8-10,75,67,60,64,61,58,96,82,62,30.00,29.88,6,1,12,0.08
2013-8-11,74,66,58,60,56,54,89,73,51,30.06,29.98,5,1,12,0.01
2013-8-12,77,66,56,58,56,53,92,72,49,30.07,30.00,5,1,10,0.00
2013-8-13,81,67,55,58,55,51,94,69,36,30.10,29.92,5,1,9,0.00
2013-8-14,80,66,55,62,58,54,95,77,44,29.96,29.91,3,0,9,0.02
2013-8-15,69,66,62,66,63,61,97,92,83,29.99,29.91,2,0,6,0.05
2013-8-16,83,70,60,66,60,51,100,75,34,30.00,29.93,5,1,13,0.00
2013-8-17,76,69,60,62,58,55,85,70,58,30.07,30.00,5,1,13,0.00
2013-8-18,77,66,60,60,56,52,88,71,55,30.13,30.07,5,1,12,0.00
2013-8-19,78,66,57,59,55,51,84,68,52,30.12,30.05,5,1,9,0.00
2013-8-20,76,66,56,58,53,50,85,65,47,30.17,30.07,3,1,8,0.00
2013-8-21,81,66,49,56,52,48,95,65,39,30.09,29.93,2,0,7,0.00
2013-8-22,84,70,54,60,56,51,91,63,38,29.95,29.79,6,0,9,0.00
2013-8-23,74,66,61,58,57,55,86,72,57,29.89,29.81,7,1,13,0.00
2013-8-24,75,65,58,58,55,47,93,72,42,29.92,29.84,5,1,9,0.00
2013-8-25,73,62,51,61,55,50,97,79,56,29.95,29.86,3,0,7,0.00
2013-8-26,74,64,58,61,58,52,94,81,48,29.96,29.85,5,1,12,0.05
2013-8-27,79,68,60,62,59,56,94,76,52,29.96,29.78,3,0,8,0.00
2013-8-28,78,68,60,66,61,57,100,80,54,29.88,29.82,5,0,7,0.15
2013-8-29,72,66,63,66,64,62,97,92,78,30.01,29.85,3,0,9,0.49
2013-8-30,77,67,58,63,57,52,94,72,43,30.15,30.02,5,1,9,0.00
2013-8-31,82,66,52,60,56,51,100,74,46,30.08,29.83,2,0,6,0.00
2013-9-1,80,74,63,61,59,56,79,61,46,29.87,29.79,5,1,9,0.00
2013-9-2,80,68,58,61,58,55,95,71,47,29.93,29.85,5,1,10,0.00
2013-9-3,73,64,58,65,61,57,97,89,68,30.02,29.93,1,0,4,0.19
2013-9-4,68,62,57,62,59,56,100,92,79,30.06,29.99,2,0,5,0.00
2013-9-5,68,62,57,62,59,56,100,92,79,30.05,29.93,2,0,7,0.61
2013-9-6,71,63,59,63,60,59,100,92,74,30.12,29.94,5,0,10,0.98
2013-9-7,73,64,58,62,60,56,96,88,66,30.11,30.01,5,0,7,0.00
2013-9-8,77,64,55,64,59,54,100,85,57,30.12,30.02,5,0,9,0.00
2013-9-9,78,64,56,64,59,55,100,86,59,30.07,29.97,3,0,7,0.00
2013-9-10,79,65,55,65,60,54,100,84,59,30.00,29.88,2,0,6,0.00
2013-9-11,93,72,56,66,60,55,100,71,31,29.94,29.86,2,0,6,0.00
2013-9-12,79,67,60,63,60,58,95,81,56,30.00,29.89,3,1,8,0.00
2013-9-13,66,62,58,61,60,56,97,91,84,29.97,29.87,2,0,7,0.00
2013-9-14,69,63,58,62,60,57,97,90,79,29.88,29.73,2,0,4,0.00
2013-9-15,65,61,58,62,60,57,100,95,87,29.82,29.71,3,0,8,0.12
2013-9-16,67,61,56,60,57,54,95,89,76,29.94,29.81,3,1,12,0.00
2013-9-17,62,57,53,55,53,52,95,85,70,29.94,29.88,3,0,7,0.00
2013-9-18,68,58,51,55,52,49,100,82,57,30.08,29.94,5,0,9,0.00
2013-9-19,79,60,45,55,50,44,100,73,42,30.05,29.76,3,0,7,0.00
2013-9-20,74,60,49,56,52,48,95,78,48,29.76,29.59,5,1,13,0.02
2013-9-21,70,61,56,57,55,52,95,81,56,29.72,29.65,6,1,10,0.01
2013-9-22,61,57,54,55,53,48,95,85,65,29.74,29.58,5,2,20,0.30
2013-9-23,60,55,49,54,52,48,96,87,75,29.97,29.74,5,1,15,0.09
2013-9-24,62,54,48,52,49,46,100,85,58,29.97,29.84,5,1,10,0.00
2013-9-25,60,51,44,51,48,43,97,91,65,30.04,29.87,2,0,5,0.00
2013-9-26,62,50,42,51,47,42,100,89,61,30.14,30.04,3,0,8,0.00
2013-9-27,56,53,47,53,50,46,96,88,80,30.14,29.86,5,1,12,0.00
2013-9-28,60,55,51,58,53,49,100,94,88,29.86,29.35,7,2,20,1.32
2013-9-29,55,52,51,52,49,48,96,89,80,29.58,29.17,7,3,21,0.63
2013-9-30,56,51,48,52,48,45,95,88,78,29.93,29.42,6,2,16,0.15
2013-10-1,57,51,46,50,46,44,96,84,61,30.12,29.92,6,2,15,0.06
2013-10-2,54,50,47,49,47,46,97,90,77,30.18,30.06,5,0,12,0.22
2013-10-3,57,50,43,49,47,42,100,90,70,30.47,30.18,2,0,6,0.01
2013-10-4,63,48,37,50,44,37,100,86,52,30.49,30.36,2,0,7,0.00
2013-10-5,70,53,41,52,46,40,100,82,49,30.37,30.14,2,0,6,0.00
2013-10-6,73,56,41,54,47,40,100,76,37,30.14,29.89,5,0,12,0.00
2013-10-7,60,54,51,51,49,45,95,84,60,30.01,29.90,7,2,15,0.10
2013-10-8,53,50,41,50,46,40,97,88,73,30.08,29.97,2,0,8,0.15
2013-10-9,59,46,38,48,43,37,100,89,64,30.15,29.96,3,0,7,0.01
2013-10-10,58,50,44,50,47,42,97,87,67,30.08,29.95,3,0,7,0.01
2013-10-11,54,50,46,51,48,45,100,95,86,30.15,30.07,2,0,5,0.04
2013-10-12,56,49,42,51,47,41,100,93,75,30.22,30.08,1,0,6,0.17
2013-10-13,56,46,38,48,44,38,100,95,75,30.38,30.23,2,0,5,0.01
2013-10-14,60,44,34,49,42,34,100,92,64,30.45,30.38,1,0,4,0.00
2013-10-15,61,47,37,52,44,37,100,92,70,30.41,30.19,3,0,6,0.01
2013-10-16,53,48,42,49,46,41,100,94,86,30.22,30.16,1,0,5,0.00
2013-10-17,56,48,42,50,46,41,100,93,80,30.29,30.22,1,0,4,0.00
2013-10-18,60,46,39,52,45,39,100,95,74,30.26,30.16,2,0,6,0.00
2013-10-19,50,45,40,48,44,40,100,98,91,30.20,30.16,1,0,2,0.01
2013-10-20,48,46,44,47,45,44,100,97,92,30.22,30.16,1,0,4,0.01
2013-10-21,51,47,44,48,46,44,100,98,90,30.18,30.11,1,0,4,0.00
2013-10-22,57,48,44,52,47,44,100,97,83,30.13,30.04,1,0,4,0.01
2013-10-23,60,47,41,53,46,41,100,96,76,30.07,29.99,2,0,6,0.00
2013-10-24,50,46,43,49,46,43,100,98,93,30.13,30.03,2,0,4,0.01
2013-10-25,51,47,42,49,46,42,100,97,90,30.33,30.13,1,0,4,0.01
2013-10-26,52,48,43,47,46,43,100,93,82,30.34,30.19,2,0,8,0.00
2013-10-27,56,47,41,50,46,40,100,94,76,30.21,29.91,3,0,10,0.11
2013-10-28,56,45,37,46,39,34,100,81,48,29.96,29.89,3,0,14,0.00
2013-10-29,56,42,31,41,37,31,100,84,54,30.05,29.96,3,0,6,0.00
2013-10-30,55,45,34,47,41,33,100,85,67,30.14,30.04,5,1,13,0.02
2013-10-31,54,50,48,51,47,43,97,89,78,30.27,30.11,3,0,12,0.00
2013-11-1,60,53,49,52,50,48,100,90,74,30.28,29.84,2,0,5,0.00
2013-11-2,54,49,44,50,45,40,100,88,73,29.89,29.49,9,2,22,0.50
2013-11-3,51,43,37,43,39,36,97,88,67,30.12,29.89,3,0,10,0.00
2013-11-4,48,40,32,40,36,31,100,86,58,30.21,30.07,2,0,5,0.01
2013-11-5,54,46,41,49,44,40,100,94,76,30.26,30.03,3,0,13,0.00
2013-11-6,50,46,41,47,44,41,100,95,84,30.33,30.03,2,0,5,0.00
2013-11-7,49,48,47,48,46,45,100,96,86,30.03,29.72,7,2,20,0.62
2013-11-8,53,47,41,46,44,40,100,88,74,30.17,29.97,3,1,13,0.00
2013-11-9,50,44,35,45,42,35,100,93,74,30.17,30.08,1,0,3,0.09
2013-11-10,49,45,42,46,44,42,100,96,89,30.16,30.10,1,0,5,0.02
2013-11-11,58,46,38,50,44,38,100,93,71,30.17,30.00,2,0,5,0.00
2013-11-12,57,51,44,53,49,42,100,93,85,30.36,30.03,3,0,8,0.14
2013-11-13,55,52,47,50,48,45,94,88,79,30.44,30.31,2,0,9,0.00
2013-11-14,49,46,41,48,45,41,100,97,93,30.31,30.06,2,0,4,0.14
2013-11-15,47,44,40,46,42,40,100,95,89,30.07,29.33,6,1,21,0.33
2013-11-16,47,43,39,43,39,37,100,87,73,29.78,29.36,6,1,13,0.04
2013-11-17,51,47,42,46,43,38,92,88,82,29.92,29.77,6,2,16,0.00
2013-11-18,50,49,46,49,47,44,97,95,89,29.91,29.56,5,1,13,0.63
2013-11-19,52,43,35,51,38,25,97,85,58,30.08,29.55,5,0,15,0.19
2013-11-20,41,33,26,32,27,24,97,81,56,30.53,30.08,2,0,7,0.00
2013-11-21,42,30,24,30,25,23,97,84,49,30.69,30.53,2,0,5,0.00
2013-11-22,45,32,24,30,27,23,96,82,50,30.67,30.47,1,0,4,0.01
2013-11-23,50,36,26,36,30,26,97,83,51,30.46,30.21,1,0,3,0.00
2013-11-24,50,37,28,42,34,28,100,91,70,30.27,30.18,2,0,5,0.00
2013-11-25,51,38,29,43,36,29,100,90,69,30.34,30.27,1,0,3,0.01
2013-11-26,51,40,31,43,37,30,100,91,62,30.28,30.11,1,0,3,0.01
2013-11-27,55,44,35,44,39,34,97,82,64,30.11,29.97,2,0,4,0.00
2013-11-28,48,38,32,44,37,31,100,97,87,30.19,30.03,1,0,4,0.00
2013-11-29,46,42,36,45,42,36,100,96,89,30.33,30.19,2,0,6,0.00
2013-11-30,50,48,45,47,44,43,97,89,78,30.34,30.10,5,1,15,0.17
2013-12-1,53,50,40,51,47,38,97,91,84,30.09,29.74,6,2,23,0.05
2013-12-2,44,38,34,38,34,32,97,88,64,30.06,29.82,3,0,10,0.05
2013-12-3,37,32,25,35,26,23,97,81,60,30.33,30.06,3,0,9,0.00
2013-12-4,35,26,21,28,23,20,100,88,63,30.38,30.31,2,0,4,0.00
2013-12-5,31,25,19,24,20,14,96,83,59,30.34,30.22,2,0,6,0.00
2013-12-6,31,24,17,15,12,8,78,61,43,30.25,30.17,2,0,10,0.00
2013-12-7,27,18,12,10,8,3,82,65,36,30.46,30.25,1,0,5,0.00
2013-12-8,30,21,12,17,14,8,88,74,51,30.60,30.45,1,0,3,0.00
2013-12-9,31,26,17,24,19,13,88,76,63,30.61,30.51,1,0,3,0.00
2013-12-10,38,33,30,33,29,24,89,85,78,30.52,30.43,0,0,3,0.00
2013-12-11,39,32,26,34,30,25,97,92,79,30.44,30.18,1,0,3,0.00
2013-12-12,43,35,28,40,33,27,100,94,70,30.18,30.07,5,0,12,0.22
2013-12-13,46,44,40,46,44,40,100,100,100,30.43,30.15,2,0,7,0.06
2013-12-14,48,44,41,44,43,41,100,95,85,30.45,30.33,3,0,9,0.00
2013-12-15,49,47,45,48,46,43,100,95,85,30.46,30.33,3,1,12,0.07
2013-12-16,45,42,38,45,42,38,100,99,95,30.51,30.28,1,0,3,0.00
2013-12-17,44,40,37,42,39,37,100,98,92,30.28,30.12,2,0,7,0.01
2013-12-18,42,39,29,42,37,28,100,93,76,30.17,30.04,5,0,7,0.11
2013-12-19,37,30,25,31,28,24,100,92,66,30.37,30.16,2,0,4,0.00
2013-12-20,39,34,29,39,33,28,100,97,92,30.22,29.73,5,0,10,0.50
2013-12-21,44,40,37,44,40,37,100,100,100,30.17,29.85,2,0,3,0.27
2013-12-22,48,46,43,48,46,43,100,100,97,30.30,30.17,5,1,12,0.36
2013-12-23,52,46,39,48,45,39,100,96,84,30.53,30.13,6,1,18,0.13
2013-12-24,45,37,31,42,37,31,100,98,83,30.64,30.52,1,0,3,0.01
2013-12-25,37,32,29,37,32,29,100,100,100,30.55,30.41,1,0,2,0.01
2013-12-26,42,34,30,40,34,30,100,99,90,30.42,30.22,2,0,4,0.00
2013-12-27,44,37,30,44,37,30,100,99,88,30.39,30.14,3,0,13,0.07
2013-12-28,46,41,34,44,40,34,100,98,88,30.54,30.39,1,0,3,0.00
2013-12-29,42,38,36,40,38,36,100,99,94,30.50,30.33,2,0,4,0.02
2013-12-30,42,39,35,42,39,35,100,100,97,30.34,30.15,2,0,7,0.02
2013-12-31,44,42,36,44,41,36,100,98,94,30.39,30.20,2,0,6,0.01
2014-1-1,42,38,32,42,38,32,100,100,97,30.43,30.25,1,0,3,0.01
2014-1-2,48,44,40,45,42,40,100,95,81,30.26,29.91,3,0,16,0.41